Deering, North Dakota
Current Conditions -  °F | °C
As of 11:58 PM on Friday 28 Nov 2014 (Local Time) from KMIB Reporting Station
Broken Clouds Broken Clouds  
Wind Chill:   Ceiling: 12000
Heat Index: 10°   Visibility: 10mi
Dew Point:   Wind: 6mph
Humidity: 91%   Direction: 100°E
Pressure: 29.43"   Gusts: NA
Location:  48.4°N, 101.05°W
Report Text: KMIB 290558Z AUTO 10005KT 10SM SCT095 BKN120 M12/M13 A2943 RMK AO2 SLP006 T11211133 11115 21127 411041135 56012
Loading
Personal Weather Stations






























Interactive Weather Map New forecast layout! Learn more

10-Day Weather Forecast

Advertisements
Track Severe Weather on mobile